Valle Toledo, Valles Caldera, New Mexico Weather observations

Data are for 10 minute period ending at time listed.
 Day   Time   Solar   Ave.   Ave.  Ave.  Vector  Max.   Baro.   Total    
  of    of     Rad.   Air    Rel.  Wind   Wind   Wind  Press.  Precip.   
Year   Day            Temp.  Hum.  Speed  Dir.   Gust                    
2015   (MST)  Kw/m2    F      %     mph   deg.    mph    mb.     in.     
-------------------------------------------------------------------------
 214   16:30   0.26   66.7    59    2.2   316     4.2   735.0    0.00 
 214   16:40   0.27   66.4    58    2.3   277     3.6   734.9    0.00 
 214   16:50   0.18   65.5    57    1.9   268     3.6   734.8    0.00 
 214   17:00   0.27   65.4    58    0.6   285     3.0   734.8    0.00 
 214   17:10   0.28   66.7    53    2.3   271     4.2   734.7    0.00 
 214   17:20   0.19   65.7    54    1.5   262     2.4   734.7    0.00 
 214   17:30   0.17   64.8    58    1.3   268     4.2   734.7    0.00 
 214   17:40   0.19   64.7    60    0.5   269     2.4   734.6    0.00 
 214   17:50   0.10   64.7    60    0.7   296     3.0   734.5    0.00 
 214   18:00   0.05   63.6    64    0.2   280     1.8   734.5    0.02 
 214   18:10   0.02   61.4    76    2.5    50     6.0   734.6    0.14 
 214   18:20   0.02   57.0    82    2.9    69     6.0   734.8    0.00 
 214   18:30   0.03   56.4    81    4.6    47     7.8   735.0    0.00 
 214   18:40   0.02   55.8    84    4.0    47     5.4   735.0    0.00 
 214   18:50   0.01   55.2    86    3.7    42     5.4   735.0    0.00 
 214   19:00   0.01   54.9    88    3.0    33     4.8   735.3    0.00 
 214   19:10   0.00   54.9    89    3.7    42     6.0   735.4    0.00 
 214   19:20   0.00   54.8    89    4.4    38     5.4   735.3    0.00 
 214   19:30   0.00   54.6    90    4.1    36     5.4   735.4    0.00 
 214   19:40   0.00   54.4    90    3.1    28     4.8   735.3    0.00 
 214   19:50   0.00   54.2    90    0.5   356     3.6   735.4    0.00 
 214   20:00   0.00   54.1    91    4.0    37     4.8   735.4    0.00 
 214   20:10   0.00   54.2    91    3.5    31     4.2   735.4    0.00 
 214   20:20   0.00   54.2    92    3.4    28     4.8   735.4    0.00 
 214   20:30   0.00   54.1    91    2.9    36     4.2   735.6    0.00 
 214   20:40   0.00   54.1    91    3.6    36     4.2   735.7    0.00 
 214   20:50   0.00   54.0    91    3.3    28     4.2   735.8    0.00 
 214   21:00   0.00   53.9    90    3.1    29     3.6   735.8    0.00 
 214   21:10   0.00   53.8    90    3.4    35     4.8   735.9    0.00 
 214   21:20   0.00   53.7    90    2.6    43     4.2   736.1    0.00 
 214   21:30   0.00   53.7    90    2.4    50     4.2   736.3    0.00 
 214   21:40   0.00   53.6    91    1.7    32     3.0   736.3    0.00 
 214   21:50   0.00   53.6    91    1.5    41     3.6   736.3    0.00 
 214   22:00   0.00   53.7    91    2.2    69     3.6   736.1    0.00 
 214   22:10   0.00   53.8    91    2.9    43     4.2   736.0    0.00 
 214   22:20   0.00   53.6    91    2.2    24     3.6   735.9    0.00 
 214   22:30   0.00   53.4    91    2.8    30     4.2   735.8    0.00 
 214   22:40   0.00   53.3    91    2.3    23     4.2   735.8    0.00 
 214   22:50   0.00   53.3    91    1.7    58     3.0   735.8    0.00 
 214   23:00   0.00   53.4    91    1.9    41     3.0   735.9    0.00 
 214   23:10   0.00   53.5    91    1.1    43     3.0   735.9    0.00 
 214   23:20   0.00   53.6    92    1.7   260     4.2   736.1    0.01 
 214   23:30   0.00   53.3    92    4.1   298     7.8   736.2    0.02 
 214   23:40   0.00   53.0    92    2.9   286     5.4   736.3    0.02 
 214   23:50   0.00   52.7    92    3.3   293     6.6   736.4    0.02 
 215    0:00   0.00   52.5    93    3.7   288    10.2   736.5    0.02 
 215    0:10   0.00   52.2    93    4.7   288     9.0   736.5    0.01 
 215    0:20   0.00   51.7    92    3.7   322     7.2   736.5    0.02 
 215    0:30   0.00   51.5    92    0.5   265     4.2   736.4    0.02 
 215    0:40   0.00   51.5    93    0.1    53     1.2   736.2    0.00 
 215    0:50   0.00   51.5    93    0.4    88     1.8   736.1    0.00 
 215    1:00   0.00   51.2    92    1.9   256     4.8   736.0    0.00 
 215    1:10   0.00   51.1    92    1.4    86     4.8   735.7    0.01 
 215    1:20   0.00   50.8    88    1.7    35     7.8   735.5    0.01 
 215    1:30   0.00   50.7    87    1.9   153     4.2   735.5    0.00 
 215    1:40   0.00   50.1    90    3.0    68     4.8   735.5    0.00 
 215    1:50   0.00   49.5    90    0.8    32     3.0   735.5    0.00 
 215    2:00   0.00   49.0    91    2.8    22     4.8   735.5    0.00 
 215    2:10   0.00   48.7    91    2.6    36     3.6   735.5    0.00 
 215    2:20   0.00   48.5    91    2.9    27     4.2   735.5    0.00 
 215    2:30   0.00   48.6    92    2.6    35     4.2   735.5    0.00 
 215    2:40   0.00   48.8    92    1.0    42     3.6   735.4    0.00 
 215    2:50   0.00   48.8    92    2.4    31     3.6   735.3    0.00 
 215    3:00   0.00   48.7    92    1.6    15     2.4   735.2    0.00 
 215    3:10   0.00   48.7    92    1.8    20     3.0   735.2    0.00 
 215    3:20   0.00   48.7    92    1.6    82     3.6   735.2    0.00 
 215    3:30   0.00   48.7    93    0.8    56     3.0   735.1    0.00 
 215    3:40   0.00   48.5    92    1.2    34     3.0   735.1    0.00 
 215    3:50   0.00   48.1    92    2.4    23     3.0   735.0    0.00 
 215    4:00   0.00   47.7    92    3.1    35     3.6   735.1    0.00 
 215    4:10   0.00   47.3    92    2.9    36     3.6   735.1    0.00 
 215    4:20   0.00   47.0    92    3.7    39     4.8   735.1    0.00 
 215    4:30   100.00  99999.0   99999  99999.0   99999   99999.0   99999.0   99999.00 
 215    4:40   100.00  99999.0   99999  99999.0   99999   99999.0   99999.0   99999.00 
 215    4:50   100.00  99999.0   99999  99999.0   99999   99999.0   99999.0   99999.00 
 215    5:00   100.00  99999.0   99999  99999.0   99999   99999.0   99999.0   99999.00 
 215    5:10   100.00  99999.0   99999  99999.0   99999   99999.0   99999.0   99999.00 
 215    5:20   100.00  99999.0   99999  99999.0   99999   99999.0   99999.0   99999.00 
 215    5:30   0.01   46.3    93    1.0    60     3.6   735.6    0.00 
 215    5:40   0.01   46.3    93    1.4    24     3.0   735.6    0.00 
 215    5:50   0.01   45.9    93    2.0    22     5.4   735.6    0.00 
 215    6:00   0.01   46.0    93    1.8    52     3.0   735.6    0.00 
 215    6:10   0.02   46.3    93    1.8    34     2.4   735.6    0.00 
 215    6:20   0.02   46.4    93    0.8    53     2.4   735.7    0.00 
 215    6:30   0.12   46.9    93    0.5    39     2.4   735.8    0.00 
 215    6:40   0.22   50.0    93    1.2    42     2.4   735.9    0.00 
 215    6:50   0.22   51.8    88    0.8    39     3.0   735.9    0.00 
 215    7:00   0.27   54.1    81    0.0     0     0.0   735.9    0.00 
 215    7:10   0.30   56.6    76    0.0     0     0.0   735.9    0.00 
 215    7:20   0.33   57.2    76    0.0     0     0.0   736.0    0.00 
 215    7:30   0.36   58.2    76    0.0     0     0.0   736.0    0.00 
 215    7:40   0.40   59.7    71    0.0     0     0.0   736.0    0.00 
 215    7:50   0.43   59.1    70    0.0     0     0.0   736.1    0.00 
 215    8:00   0.46   61.6    63    0.7   304     3.6   736.2    0.00 
 215    8:10   0.49   59.8    65    2.7   277     6.0   736.3    0.00 
 215    8:20   0.52   58.9    66    2.6   242     5.4   736.3    0.00 
 215    8:30   0.55   58.8    68    2.9   238     5.4   736.2    0.00 
 215    8:40   0.58   58.5    70    3.3   240     6.6   736.1    0.00 
 215    8:50   0.62   59.6    70    3.0   254     5.4   736.1    0.00 
 215    9:00   0.66   59.8    70    3.9   260     7.2   736.0    0.00 
 215    9:10   0.71   60.7    68    4.1   244     7.2   736.0    0.00 
 215    9:20   0.71   61.5    66    4.4   251     7.8   736.1    0.00 
 215    9:30   0.67   62.7    64    4.4   261     9.6   736.0    0.00 
 215    9:40   0.65   62.3    63    4.3   267     9.0   736.0    0.00 
 215    9:50   0.61   62.5    61    4.0   249     7.8   735.9    0.00 
 215   10:00   0.72   63.4    54    6.3   292    11.3   735.9    0.00 
 215   10:10   0.73   64.8    56    4.6   256     8.4   735.9    0.00 
 215   10:20   0.71   64.6    59    5.1   270     9.6   735.9    0.00 
 215   10:30   0.75   64.9    53    5.4   273    11.3   736.0    0.00 
 215   10:40   0.88   66.7    50    7.0   301    13.1   735.9    0.00 
 215   10:50   0.74   67.5    53    5.3   296    13.1   735.9    0.00 
 215   11:00   0.69   66.1    53    5.5   287     9.6   735.9    0.00 
 215   11:10   0.89   66.9    47    7.9   293    16.7   736.0    0.00 
 215   11:20   0.87   66.6    46    8.4   307    14.9   736.0    0.00 
 215   11:30   0.86   67.0    47    6.5   294    15.5   736.1    0.00 
 215   11:40   0.87   67.7    44    6.6   301    13.1   736.1    0.00 
 215   11:50   0.79   68.0    42    6.8   307    16.7   736.1    0.00 
 215   12:00   0.85   67.3    40    7.9   312    12.5   736.1    0.00 
 215   12:10   0.85   67.9    39    8.7   320    13.7   736.1    0.00 
 215   12:20   0.87   67.4    38    8.3   291    14.9   736.1    0.00 
 215   12:30   0.85   67.7    38    8.7   312    13.1   736.1    0.00 
 215   12:40   0.84   67.6    39    8.4   305    16.1   736.0    0.00 
 215   12:50   0.80   67.7    42    7.1   305    13.7   736.0    0.00 
 215   13:00   0.65   67.9    40    8.2   313    14.3   736.0    0.00 
 215   13:10   0.88   67.9    42    7.4   299    13.1   736.0    0.00 
 215   13:20   0.82   69.0    38    8.5   325    16.7   735.9    0.00 
 215   13:30   0.84   69.0    38    6.4   268    14.3   735.9    0.00 
 215   13:40   0.88   69.0    37    8.7   290    16.7   735.9    0.00 
 215   13:50   0.83   69.8    36    7.5   287    13.7   735.9    0.00 
 215   14:00   0.87   69.5    34    7.3   281    14.3   735.8    0.00 
 215   14:10   0.83   69.7    36    7.2   301    16.1   735.8    0.00 
 215   14:20   0.90   70.1    38    9.2   309    15.5   735.8    0.00 
 215   14:30   0.89   70.2    39    9.8   305    18.5   735.8    0.00 
 215   14:40   0.69   69.6    39    7.1   278    11.9   735.8    0.00 
 215   14:50   0.76   69.7    39    7.7   290    14.9   735.7    0.00 
 215   15:00   0.71   69.3    38    9.0   296    14.3   735.6    0.00 
 215   15:10   0.62   69.5    40    7.2   287    14.9   735.5    0.00 
 215   15:20   0.71   69.5    38    8.7   291    14.9   735.3    0.00 
 215   15:30   0.68   69.2    37    8.4   284    14.9   735.2    0.00 
 215   15:40   0.66   70.1    36    6.1   303    12.5   735.2    0.00 
 215   15:50   0.62   70.6    34    8.0   286    17.3   735.1    0.00 
 215   16:00   0.60   70.5    35    7.3   300    14.3   735.1    0.00 
 215   16:10   0.51   71.0    34    9.1   302    18.5   735.0    0.00 
 215   16:20   0.54   70.6    35    7.2   294    14.3   735.0    0.00 

Return to Valle Toledo, Valles Caldera graphs page.


Western Regional Climate Center,wrcc@dri.edu